Time;durP1;ratioP1;P1;durP2;ratioP2;P2;SDS_P1;SDS_P2;PMS_P1;PMS_P2;Temp;Humidity;BMP_temperature;BMP_pressure;BME280_temperature;BME280_humidity;BME280_pressure;Samples;Min_cycle;Max_cycle;Signal;HPM_P1;HPM_P2
2023/03/17 00:02:09;;;;;;;0.10;0.10;;;;;;;12.73;64.81;99072.09;7353121;19;20482;-58
2023/03/17 00:04:34;;;;;;;0.00;0.00;;;;;;;12.69;65.08;99070.59;7349713;19;20063;-58
2023/03/17 00:06:59;;;;;;;0.00;0.00;;;;;;;12.72;64.89;99065.19;7347307;19;20010;-57
2023/03/17 00:09:25;;;;;;;0.10;0.10;;;;;;;12.70;64.12;99069.66;7353713;19;20038;-57
2023/03/17 00:11:50;;;;;;;0.00;0.00;;;;;;;12.69;64.77;99059.25;7352576;19;20027;-57
2023/03/17 00:14:16;;;;;;;0.00;0.00;;;;;;;12.68;65.48;99068.91;7349063;19;20319;-57
2023/03/17 00:16:47;;;;;;;0.00;0.00;;;;;;;12.69;65.18;99056.66;7355303;19;20028;-57
2023/03/17 00:19:20;;;;;;;0.00;0.00;;;;;;;12.68;64.97;99057.59;7351763;19;20015;-57
2023/03/17 00:21:46;;;;;;;0.10;0.10;;;;;;;12.66;64.71;99069.91;7351737;19;20011;-57
2023/03/17 00:24:12;;;;;;;0.00;0.00;;;;;;;12.64;65.53;99067.38;7329284;19;20034;-58
2023/03/17 00:26:39;;;;;;;0.00;0.00;;;;;;;12.64;65.24;99077.00;7331045;19;20729;-58
2023/03/17 00:29:05;;;;;;;0.00;0.00;;;;;;;12.62;65.70;99074.50;7333170;19;20598;-57
2023/03/17 00:31:33;;;;;;;0.00;0.00;;;;;;;12.63;65.95;99067.47;7345469;19;20014;-57
2023/03/17 00:33:59;;;;;;;;;;;;;;;12.63;64.42;99073.56;7347723;19;20011;-58
2023/03/17 00:36:28;;;;;;;0.10;0.10;;;;;;;12.61;66.42;99071.94;7347166;19;19926;-57
2023/03/17 00:38:54;;;;;;;0.10;0.10;;;;;;;12.59;66.56;99076.44;7340411;19;20018;-58
2023/03/17 00:41:21;;;;;;;0.10;0.10;;;;;;;12.54;67.11;99066.22;7350914;19;20018;-57
2023/03/17 00:43:46;;;;;;;0.00;0.00;;;;;;;12.53;66.43;99074.16;7359995;19;20006;-58
2023/03/17 00:46:37;;;;;;;0.00;0.00;;;;;;;12.52;66.07;99073.34;7346582;19;20039;-57
2023/03/17 00:49:22;;;;;;;0.00;0.00;;;;;;;12.40;66.43;99055.69;7249283;19;2004630;-58
2023/03/17 00:51:49;;;;;;;0.00;0.00;;;;;;;12.40;67.32;99068.78;7350740;19;20014;-58
2023/03/17 00:54:16;;;;;;;0.10;0.10;;;;;;;12.37;67.27;99063.72;7349720;19;20029;-57
2023/03/17 00:56:43;;;;;;;0.00;0.00;;;;;;;12.33;67.61;99062.19;7354368;19;20037;-57
2023/03/17 00:59:20;;;;;;;0.10;0.10;;;;;;;12.30;66.93;99062.38;7356476;19;20045;-57
2023/03/17 01:01:46;;;;;;;0.00;0.00;;;;;;;12.24;67.43;99075.78;7356265;19;20017;-57
2023/03/17 01:04:12;;;;;;;0.00;0.00;;;;;;;12.20;68.19;99077.72;7356616;19;20098;-57
2023/03/17 01:06:38;;;;;;;0.10;0.10;;;;;;;12.14;67.14;99073.69;7357689;19;20073;-58
2023/03/17 01:09:03;;;;;;;0.00;0.00;;;;;;;12.10;67.28;99072.16;7358261;19;20010;-57
2023/03/17 01:11:29;;;;;;;0.10;0.10;;;;;;;12.05;67.91;99074.19;7357725;19;20014;-57
2023/03/17 01:13:55;;;;;;;0.10;0.10;;;;;;;12.02;67.48;99078.75;7361125;19;20029;-57
2023/03/17 01:16:21;;;;;;;0.08;0.08;;;;;;;11.89;67.36;99068.94;7356221;19;20042;-57
2023/03/17 01:18:47;;;;;;;0.10;0.10;;;;;;;11.58;68.04;99020.03;7357784;19;20010;-58
2023/03/17 01:21:12;;;;;;;0.10;0.10;;;;;;;11.92;68.33;99086.25;7357264;19;20013;-57
2023/03/17 01:23:38;;;;;;;0.10;0.10;;;;;;;11.58;68.60;99035.72;7359968;19;20485;-58
2023/03/17 01:26:05;;;;;;;0.10;0.10;;;;;;;11.88;68.19;99076.88;7354964;19;20053;-58
2023/03/17 01:28:30;;;;;;;0.08;0.08;;;;;;;11.86;68.64;99078.72;7357680;19;20139;-57
2023/03/17 01:30:56;;;;;;;0.10;0.10;;;;;;;11.84;68.29;99070.97;7361593;19;20483;-57
2023/03/17 01:33:21;;;;;;;0.05;0.05;;;;;;;11.84;68.50;99080.59;7356825;19;20022;-58
2023/03/17 01:35:48;;;;;;;0.00;0.00;;;;;;;11.81;68.62;99075.47;7360742;19;20022;-57
2023/03/17 01:38:14;;;;;;;0.00;0.00;;;;;;;11.81;67.03;99075.47;7356214;19;20100;-57
2023/03/17 01:40:48;;;;;;;0.00;0.00;;;;;;;11.83;67.54;99071.88;7357265;19;20085;-57
2023/03/17 01:43:28;;;;;;;0.00;0.00;;;;;;;11.72;67.48;99049.84;7357705;19;20545;-57
2023/03/17 01:46:26;;;;;;;0.00;0.00;;;;;;;11.83;67.28;99063.19;7358087;19;20770;-57
2023/03/17 01:49:08;;;;;;;0.00;0.00;;;;;;;11.83;67.74;99061.44;7253714;19;2004493;-57
2023/03/17 01:51:45;;;;;;;0.00;0.00;;;;;;;11.84;67.91;99065.72;7356782;19;20018;-57
2023/03/17 01:54:16;;;;;;;0.00;0.00;;;;;;;11.85;68.33;99058.72;7358609;19;20014;-57
2023/03/17 01:56:44;;;;;;;0.10;0.10;;;;;;;11.85;67.99;99056.09;7359359;19;20779;-57
2023/03/17 01:59:16;;;;;;;0.10;0.10;;;;;;;11.87;67.37;99056.88;7358301;19;20359;-58
2023/03/17 02:01:46;;;;;;;0.10;0.10;;;;;;;11.86;67.79;99049.94;7359981;19;20039;-57
2023/03/17 02:04:11;;;;;;;0.10;0.10;;;;;;;11.75;67.72;99026.97;7351441;19;20629;-57
2023/03/17 02:06:37;;;;;;;0.10;0.10;;;;;;;11.85;67.69;99043.03;7358174;19;20078;-57
2023/03/17 02:09:03;;;;;;;0.05;0.05;;;;;;;11.86;67.18;99042.09;7355400;19;20577;-57
2023/03/17 02:11:30;;;;;;;0.00;0.00;;;;;;;11.85;67.15;99035.19;7359215;19;20038;-57
2023/03/17 02:13:56;;;;;;;0.00;0.00;;;;;;;11.81;67.65;99024.03;7352544;19;20035;-58
2023/03/17 02:16:22;;;;;;;0.00;0.00;;;;;;;11.83;68.34;99029.22;7359281;19;20011;-58
2023/03/17 02:18:47;;;;;;;0.00;0.00;;;;;;;11.81;66.97;99031.88;7352692;19;20070;-57
2023/03/17 02:21:37;;;;;;;0.10;0.10;;;;;;;11.82;66.96;99035.38;7358494;19;20027;-58
2023/03/17 02:24:12;;;;;;;0.10;0.10;;;;;;;11.78;67.56;99029.41;7256315;19;2004623;-58
2023/03/17 02:26:37;;;;;;;0.00;0.00;;;;;;;11.76;67.70;99031.28;7351939;19;20010;-59
2023/03/17 02:29:04;;;;;;;0.00;0.00;;;;;;;11.75;66.71;99028.72;7358552;19;20014;-57
2023/03/17 02:31:30;;;;;;;0.10;0.10;;;;;;;11.73;67.36;99031.44;7356692;19;20566;-58
2023/03/17 02:33:55;;;;;;;0.10;0.10;;;;;;;11.61;67.28;99006.81;7356726;19;21387;-58
2023/03/17 02:36:21;;;;;;;0.10;0.10;;;;;;;11.73;66.88;99038.44;7356767;19;20010;-57
2023/03/17 02:38:47;;;;;;;0.00;0.00;;;;;;;11.73;67.00;99038.44;7353532;19;20007;-57
2023/03/17 02:41:12;;;;;;;0.00;0.00;;;;;;;11.63;67.91;99014.56;7357050;19;20011;-58
2023/03/17 02:43:38;;;;;;;0.00;0.00;;;;;;;11.74;68.38;99040.97;7357574;19;20014;-57
2023/03/17 02:46:04;;;;;;;0.00;0.00;;;;;;;11.68;68.68;99025.63;7353118;19;20006;-58
2023/03/17 02:48:31;;;;;;;0.03;0.03;;;;;;;11.74;68.67;99037.50;7357025;19;20006;-57
2023/03/17 02:50:57;;;;;;;0.00;0.00;;;;;;;11.74;69.01;99034.91;7358544;19;20027;-57
2023/03/17 02:53:22;;;;;;;0.00;0.00;;;;;;;11.71;69.03;99038.53;7355208;19;20062;-57
2023/03/17 02:55:48;;;;;;;0.10;0.10;;;;;;;11.72;69.09;99036.75;7356850;19;20017;-58
2023/03/17 02:58:14;;;;;;;0.00;0.00;;;;;;;11.71;69.13;99041.16;7346378;19;20007;-57
2023/03/17 03:00:40;;;;;;;0.00;0.00;;;;;;;11.69;68.60;99024.69;7355199;19;20023;-57
2023/03/17 03:03:05;;;;;;;0.00;0.00;;;;;;;11.67;68.75;99011.69;7351648;19;20018;-57
2023/03/17 03:05:31;;;;;;;0.08;0.08;;;;;;;11.66;69.39;99017.88;7351593;19;20032;-57
2023/03/17 03:07:56;;;;;;;0.10;0.10;;;;;;;11.64;68.41;99024.94;7349963;19;20644;-58
2023/03/17 03:10:22;;;;;;;0.03;0.03;;;;;;;11.62;68.85;99023.34;7346947;19;20007;-57
2023/03/17 03:12:47;;;;;;;0.00;0.00;;;;;;;11.59;68.91;99029.56;7351604;19;20035;-57
2023/03/17 03:15:13;;;;;;;0.00;0.00;;;;;;;11.58;68.61;99027.88;7346915;19;20555;-57
2023/03/17 03:17:38;;;;;;;0.08;0.08;;;;;;;11.55;68.33;99028.03;7355956;19;20451;-57
2023/03/17 03:20:05;;;;;;;0.00;0.00;;;;;;;11.49;68.44;99020.53;7351584;19;20018;-57
2023/03/17 03:22:30;;;;;;;0.00;0.00;;;;;;;11.34;68.99;99003.88;7354562;19;20022;-56
2023/03/17 03:24:55;;;;;;;0.00;0.00;;;;;;;11.47;69.25;99022.38;7352553;19;20009;-57
2023/03/17 03:27:21;;;;;;;0.00;0.00;;;;;;;11.47;68.64;99014.53;7350480;19;20383;-57
2023/03/17 03:29:46;;;;;;;0.00;0.00;;;;;;;11.39;68.85;99007.09;7353351;19;20007;-58
2023/03/17 03:32:12;;;;;;;0.00;0.00;;;;;;;11.44;68.43;99025.16;7354536;19;20070;-57
2023/03/17 03:34:37;;;;;;;0.00;0.00;;;;;;;11.42;68.21;99013.94;7351582;19;20029;-58
2023/03/17 03:37:03;;;;;;;0.00;0.00;;;;;;;11.41;68.29;99017.50;7351850;19;20019;-57
2023/03/17 03:39:28;;;;;;;0.03;0.03;;;;;;;11.39;68.75;99003.63;7353188;19;20011;-58
2023/03/17 03:41:57;;;;;;;0.00;0.00;;;;;;;11.31;68.65;99009.28;7348350;19;20014;-57
2023/03/17 03:44:23;;;;;;;0.00;0.00;;;;;;;11.36;68.18;99007.28;7345533;19;20018;-57
2023/03/17 03:46:48;;;;;;;0.00;0.00;;;;;;;11.35;68.48;99007.34;7353941;19;20006;-57
2023/03/17 03:49:14;;;;;;;0.08;0.08;;;;;;;11.35;68.57;99002.09;7348807;19;20035;-58
2023/03/17 03:51:40;;;;;;;0.10;0.10;;;;;;;11.35;68.33;99000.38;7361743;19;20026;-57
2023/03/17 03:54:06;;;;;;;0.08;0.08;;;;;;;11.35;68.68;99004.72;7349316;19;20031;-58
2023/03/17 03:56:31;;;;;;;0.08;0.08;;;;;;;11.36;68.71;99001.22;7358269;19;20021;-57
2023/03/17 03:58:56;;;;;;;0.00;0.00;;;;;;;11.37;69.19;99002.88;7352745;19;20014;-57
2023/03/17 04:01:22;;;;;;;0.10;0.10;;;;;;;11.28;69.26;98992.91;7360720;19;20117;-57
2023/03/17 04:03:47;;;;;;;0.00;0.00;;;;;;;11.40;69.33;99002.72;7331093;19;20648;-57
2023/03/17 04:06:13;;;;;;;0.00;0.00;;;;;;;11.40;69.24;99013.16;7360181;19;20038;-58
2023/03/17 04:08:38;;;;;;;0.10;0.10;;;;;;;11.43;69.05;99010.41;7358546;19;20039;-57
2023/03/17 04:11:04;;;;;;;0.00;0.00;;;;;;;11.43;68.34;99013.84;7359094;19;20014;-57
2023/03/17 04:13:29;;;;;;;0.00;0.00;;;;;;;11.44;68.85;99019.91;7359751;19;20074;-57
2023/03/17 04:15:55;;;;;;;0.05;0.05;;;;;;;11.47;69.08;99018.94;7360915;19;20027;-57
2023/03/17 04:18:20;;;;;;;0.00;0.00;;;;;;;11.48;68.87;99016.22;7358709;19;20857;-57
2023/03/17 04:20:46;;;;;;;0.03;0.03;;;;;;;11.49;68.98;99007.44;7342221;19;20007;-57
2023/03/17 04:23:11;;;;;;;0.00;0.00;;;;;;;11.50;69.50;99019.59;7357898;19;20082;-57
2023/03/17 04:25:37;;;;;;;0.00;0.00;;;;;;;11.52;68.92;99022.13;7358043;19;20006;-57
2023/03/17 04:28:03;;;;;;;0.10;0.10;;;;;;;11.51;69.10;99013.47;7359104;19;20026;-57
2023/03/17 04:30:28;;;;;;;0.00;0.00;;;;;;;11.53;68.91;99005.53;7360975;19;20113;-59
2023/03/17 04:32:54;;;;;;;0.00;0.00;;;;;;;11.53;69.38;99001.13;7358436;19;20015;-57
2023/03/17 04:35:21;;;;;;;0.10;0.10;;;;;;;11.47;69.50;98983.19;7357362;19;20996;-57
2023/03/17 04:37:47;;;;;;;0.00;0.00;;;;;;;11.46;69.20;98991.94;7354637;19;20031;-57
2023/03/17 04:40:15;;;;;;;0.10;0.10;;;;;;;11.42;69.06;98977.34;7361194;19;20014;-57
2023/03/17 04:42:40;;;;;;;0.00;0.00;;;;;;;11.55;69.23;98998.44;7359634;19;20039;-58
2023/03/17 04:45:08;;;;;;;0.03;0.03;;;;;;;11.57;69.61;98999.22;7361551;19;20014;-57
2023/03/17 04:47:34;;;;;;;0.00;0.00;;;;;;;11.57;69.29;99007.91;7358881;19;20763;-58
2023/03/17 04:50:00;;;;;;;0.00;0.00;;;;;;;11.56;68.74;99006.22;7359693;19;20011;-57
2023/03/17 04:52:25;;;;;;;0.10;0.10;;;;;;;11.57;68.57;99010.50;7354665;19;20081;-57
2023/03/17 04:54:51;;;;;;;0.03;0.03;;;;;;;11.54;68.40;99005.44;7361250;19;25475;-57
2023/03/17 04:57:16;;;;;;;0.00;0.00;;;;;;;11.57;68.16;99010.50;7358191;19;20011;-58
2023/03/17 04:59:41;;;;;;;0.00;0.00;;;;;;;11.59;68.38;99007.81;7362693;19;20014;-58
2023/03/17 05:02:07;;;;;;;0.00;0.00;;;;;;;11.59;68.05;99008.66;7353719;19;20047;-58
2023/03/17 05:04:33;;;;;;;0.08;0.08;;;;;;;11.44;68.45;98972.88;7359767;19;20033;-57
2023/03/17 05:06:58;;;;;;;0.05;0.05;;;;;;;11.61;68.15;99006.81;7357605;19;20010;-57
2023/03/17 05:09:26;;;;;;;0.10;0.10;;;;;;;11.62;68.72;99003.25;7359298;19;20014;-57
2023/03/17 05:11:51;;;;;;;0.10;0.10;;;;;;;11.63;68.40;99004.94;7358869;19;20641;-57
2023/03/17 05:14:16;;;;;;;0.00;0.00;;;;;;;11.66;68.70;98998.72;7359309;19;20097;-57
2023/03/17 05:16:45;;;;;;;0.05;0.05;;;;;;;11.65;68.07;98997.84;7363133;19;20031;-57
2023/03/17 05:19:11;;;;;;;0.10;0.10;;;;;;;11.67;68.70;98988.16;7355890;19;20536;-57
2023/03/17 05:21:36;;;;;;;0.10;0.10;;;;;;;11.67;68.21;98990.78;7357950;19;20010;-58
2023/03/17 05:24:02;;;;;;;0.10;0.10;;;;;;;11.68;68.58;98997.69;7358488;19;20015;-57
2023/03/17 05:26:28;;;;;;;0.10;0.10;;;;;;;11.69;68.25;98993.31;7358328;19;20006;-57
2023/03/17 05:28:53;;;;;;;0.00;0.00;;;;;;;11.55;68.46;98967.91;7357307;19;20077;-57
2023/03/17 05:31:19;;;;;;;0.03;0.03;;;;;;;11.70;68.57;99001.06;7358431;19;20014;-57
2023/03/17 05:33:45;;;;;;;0.10;0.10;;;;;;;11.71;68.92;98999.31;7359249;19;20006;-57
2023/03/17 05:36:12;;;;;;;0.00;0.00;;;;;;;11.72;68.83;99008.00;7358214;19;20010;-57
2023/03/17 05:38:37;;;;;;;0.00;0.00;;;;;;;11.74;68.87;99006.13;7355094;19;20027;-57
2023/03/17 05:41:03;;;;;;;0.00;0.00;;;;;;;11.74;69.10;98995.66;7355893;19;21419;-57
2023/03/17 05:43:29;;;;;;;0.08;0.08;;;;;;;11.78;69.03;99007.66;7358525;19;20797;-58
2023/03/17 05:45:54;;;;;;;0.00;0.00;;;;;;;11.79;69.53;99007.56;7361368;19;20014;-57
2023/03/17 05:48:20;;;;;;;0.00;0.00;;;;;;;11.82;69.18;99004.00;7356287;19;20017;-57
2023/03/17 05:50:46;;;;;;;0.00;0.00;;;;;;;11.82;69.71;98999.59;7358175;19;20006;-57
2023/03/17 05:53:11;;;;;;;0.10;0.10;;;;;;;11.86;69.83;99005.47;7359062;19;20007;-57
2023/03/17 05:55:37;;;;;;;0.10;0.10;;;;;;;11.87;69.82;99013.25;7353751;19;20378;-57
2023/03/17 05:58:03;;;;;;;0.10;0.10;;;;;;;11.88;69.61;99014.94;7359463;19;20006;-57
2023/03/17 06:00:30;;;;;;;0.00;0.00;;;;;;;11.88;69.37;99011.50;7356214;19;20039;-57
2023/03/17 06:02:55;;;;;;;0.10;0.10;;;;;;;11.87;69.56;99009.81;7359024;19;20429;-57
2023/03/17 06:05:21;;;;;;;0.10;0.10;;;;;;;11.86;69.74;99010.72;7354757;19;20007;-58
2023/03/17 06:07:46;;;;;;;0.10;0.10;;;;;;;11.84;69.40;99009.97;7356548;19;20553;-57
2023/03/17 06:10:12;;;;;;;0.10;0.10;;;;;;;11.83;69.82;99005.66;7357475;19;20039;-57
2023/03/17 06:12:38;;;;;;;0.03;0.03;;;;;;;11.81;69.88;99008.34;7355976;19;20031;-58
2023/03/17 06:15:04;;;;;;;0.00;0.00;;;;;;;11.86;69.30;99005.47;7358763;19;20021;-57
2023/03/17 06:17:29;;;;;;;0.05;0.05;;;;;;;11.84;69.37;99002.97;7353725;19;20096;-57
2023/03/17 06:19:55;;;;;;;0.00;0.00;;;;;;;11.86;69.47;99005.47;7354917;19;20117;-57
2023/03/17 06:22:21;;;;;;;0.10;0.10;;;;;;;11.85;69.27;99001.19;7352435;19;20018;-58
2023/03/17 06:24:46;;;;;;;0.03;0.03;;;;;;;11.84;69.23;98996.88;7357967;19;20031;-57
2023/03/17 06:27:13;;;;;;;0.00;0.00;;;;;;;11.83;69.21;99003.06;7357452;19;20717;-57
2023/03/17 06:29:39;;;;;;;0.00;0.00;;;;;;;11.84;69.11;99007.34;7357886;19;20010;-58
2023/03/17 06:32:04;;;;;;;0.10;0.10;;;;;;;11.82;68.94;99006.59;7353835;19;20035;-58
2023/03/17 06:34:30;;;;;;;0.10;0.10;;;;;;;11.81;68.99;99012.69;7356560;19;20010;-57
2023/03/17 06:36:56;;;;;;;0.00;0.00;;;;;;;11.49;69.11;98960.41;7357465;19;20075;-57
2023/03/17 06:39:21;;;;;;;0.10;0.10;;;;;;;11.79;69.26;99011.94;7358115;19;20746;-57
2023/03/17 06:41:47;;;;;;;0.10;0.10;;;;;;;11.78;69.42;99007.66;7354309;19;20006;-58
2023/03/17 06:44:13;;;;;;;0.00;0.00;;;;;;;11.70;69.73;98997.59;7355284;19;20015;-57
2023/03/17 06:46:39;;;;;;;0.00;0.00;;;;;;;11.77;69.73;99009.44;7357975;19;20018;-58
2023/03/17 06:49:06;;;;;;;0.00;0.00;;;;;;;11.78;69.79;99013.72;7351956;19;20090;-57
2023/03/17 06:51:33;;;;;;;0.00;0.00;;;;;;;11.80;69.71;99016.25;7356082;19;20044;-57
2023/03/17 06:53:58;;;;;;;0.10;0.10;;;;;;;11.80;69.85;99011.03;7354039;19;20043;-58
2023/03/17 06:56:24;;;;;;;0.10;0.10;;;;;;;11.82;69.56;99022.28;7358308;19;20507;-57
2023/03/17 06:58:50;;;;;;;0.03;0.03;;;;;;;11.83;70.02;99021.34;7345295;19;20117;-58
2023/03/17 07:01:16;;;;;;;0.00;0.00;;;;;;;11.84;70.29;99023.03;7352184;19;20010;-58
2023/03/17 07:03:42;;;;;;;0.10;0.10;;;;;;;11.85;70.32;99024.72;7353051;19;20039;-57
2023/03/17 07:06:08;;;;;;;0.10;0.10;;;;;;;11.83;69.70;99011.75;7352613;19;20023;-57
2023/03/17 07:08:34;;;;;;;0.10;0.10;;;;;;;11.90;69.80;99022.69;7353647;19;20006;-57
2023/03/17 07:11:00;;;;;;;0.00;0.00;;;;;;;11.93;69.83;99014.69;7356530;19;20410;-58
2023/03/17 07:13:26;;;;;;;0.00;0.00;;;;;;;11.92;70.05;99013.84;7353712;19;21323;-57
2023/03/17 07:15:52;;;;;;;0.00;0.00;;;;;;;11.86;70.09;99000.25;7353253;19;20006;-57
2023/03/17 07:18:18;;;;;;;0.10;0.10;;;;;;;12.00;70.30;99018.66;7351555;19;20123;-58
2023/03/17 07:20:44;;;;;;;0.10;0.10;;;;;;;12.04;70.27;99025.41;7355344;19;20014;-58
2023/03/17 07:23:14;;;;;;;0.00;0.00;;;;;;;12.09;70.11;99018.16;7349246;19;20022;-58
2023/03/17 07:25:42;;;;;;;0.10;0.10;;;;;;;12.10;69.82;99025.06;7352274;19;20030;-58
2023/03/17 07:28:08;;;;;;;0.00;0.00;;;;;;;12.16;70.06;99029.94;7355956;19;20026;-57
2023/03/17 07:30:33;;;;;;;0.10;0.10;;;;;;;12.18;70.20;99033.34;7361703;19;20567;-58
2023/03/17 07:32:59;;;;;;;0.10;0.10;;;;;;;12.25;70.01;99040.84;7359104;19;20474;-58
2023/03/17 07:35:24;;;;;;;0.00;0.00;;;;;;;12.30;69.68;99036.19;7354855;19;20006;-58
2023/03/17 07:37:50;;;;;;;0.10;0.10;;;;;;;12.34;70.05;99032.47;7357442;19;20031;-57
2023/03/17 07:40:17;;;;;;;0.10;0.10;;;;;;;12.40;69.94;99042.59;7354368;19;20048;-57
2023/03/17 07:42:44;;;;;;;0.00;0.00;;;;;;;12.46;69.91;99042.22;7360367;19;20018;-57
2023/03/17 07:45:10;;;;;;;0.00;0.00;;;;;;;12.51;69.83;99041.97;7356867;19;20017;-57
2023/03/17 07:47:36;;;;;;;0.10;0.10;;;;;;;12.57;69.43;99039.88;7355537;19;20035;-58
2023/03/17 07:50:02;;;;;;;0.10;0.10;;;;;;;12.58;70.00;99036.31;7358717;19;20019;-57
2023/03/17 07:52:27;;;;;;;0.00;0.00;;;;;;;12.69;69.81;99043.56;7358775;19;21344;-58
2023/03/17 07:54:53;;;;;;;0.10;0.10;;;;;;;12.75;69.76;99042.34;7357242;19;20051;-57
2023/03/17 07:57:18;;;;;;;0.10;0.10;;;;;;;12.81;69.88;99039.38;7359314;19;21489;-57
2023/03/17 07:59:44;;;;;;;0.00;0.00;;;;;;;12.88;69.75;99033.69;7357523;19;20025;-57
2023/03/17 08:02:17;;;;;;;0.10;0.10;;;;;;;13.00;69.83;99053.06;7335448;19;21071;-58
2023/03/17 08:04:43;;;;;;;0.00;0.00;;;;;;;13.02;69.29;99040.72;7360549;19;20012;-57
2023/03/17 08:07:09;;;;;;;0.00;0.00;;;;;;;13.11;69.59;99040.19;7355560;19;20037;-57
2023/03/17 08:09:36;;;;;;;0.10;0.10;;;;;;;13.16;69.57;99022.41;7358776;19;20011;-58
2023/03/17 08:12:02;;;;;;;0.10;0.10;;;;;;;13.20;69.45;99023.91;7361341;19;21054;-58
2023/03/17 08:14:28;;;;;;;0.08;0.08;;;;;;;13.37;69.59;99038.63;7358945;19;20716;-58
2023/03/17 08:16:54;;;;;;;0.10;0.10;;;;;;;13.45;69.26;99043.44;7358974;19;20010;-57
2023/03/17 08:19:20;;;;;;;0.10;0.10;;;;;;;13.52;69.13;99049.13;7357099;19;20006;-57
2023/03/17 08:21:46;;;;;;;0.00;0.00;;;;;;;13.58;69.08;99044.34;7359312;19;20946;-57
2023/03/17 08:24:11;;;;;;;0.00;0.00;;;;;;;13.76;69.40;99058.97;7360617;19;20006;-57
2023/03/17 08:26:37;;;;;;;0.10;0.10;;;;;;;13.93;69.23;99054.44;7358721;19;20018;-57
2023/03/17 08:29:03;;;;;;;0.00;0.00;;;;;;;14.08;68.38;99058.72;7357134;19;20632;-57
2023/03/17 08:31:29;;;;;;;0.00;0.00;;;;;;;14.19;68.16;99060.66;7351111;19;20010;-58
2023/03/17 08:33:56;;;;;;;0.10;0.10;;;;;;;14.17;67.83;99052.91;7354816;19;20002;-57
2023/03/17 08:36:22;;;;;;;0.00;0.00;;;;;;;14.23;67.73;99057.75;7351087;19;20104;-57
2023/03/17 08:38:49;;;;;;;0.00;0.00;;;;;;;14.25;67.58;99058.50;7353180;19;20027;-58
2023/03/17 08:41:17;;;;;;;0.10;0.10;;;;;;;14.26;67.37;99054.94;7351374;19;20801;-58
2023/03/17 08:43:44;;;;;;;0.10;0.10;;;;;;;13.95;67.30;99015.84;7353698;19;20027;-57
2023/03/17 08:46:19;;;;;;;0.10;0.10;;;;;;;14.25;67.50;99060.28;7355904;19;20026;-57
2023/03/17 08:48:46;;;;;;;0.10;0.10;;;;;;;14.18;67.33;99054.56;7355588;19;20035;-57
2023/03/17 08:51:12;;;;;;;;;;;;;;;14.26;66.93;99054.94;7352328;19;20092;-58
2023/03/17 08:53:39;;;;;;;0.00;0.00;;;;;;;14.21;66.97;99058.81;7351500;19;19982;-57
2023/03/17 08:56:05;;;;;;;0.10;0.10;;;;;;;14.19;67.14;99056.28;7355759;19;20731;-58
2023/03/17 08:58:32;;;;;;;0.10;0.10;;;;;;;14.24;67.19;99054.22;7355066;19;20014;-57
2023/03/17 09:01:03;;;;;;;0.00;0.00;;;;;;;14.26;67.32;99052.31;7356147;19;20014;-58
2023/03/17 09:03:29;;;;;;;0.10;0.10;;;;;;;14.32;67.83;99058.09;7355675;19;20022;-58
2023/03/17 09:05:55;;;;;;;0.10;0.10;;;;;;;14.41;67.79;99055.75;7332767;19;20006;-58
2023/03/17 09:08:21;;;;;;;0.10;0.10;;;;;;;14.50;67.47;99070.09;7351604;19;20460;-57
2023/03/17 09:10:48;;;;;;;0.10;0.10;;;;;;;14.56;67.32;99059.19;7352634;19;20003;-58
2023/03/17 09:13:15;;;;;;;0.00;0.00;;;;;;;14.53;67.12;99056.75;7352606;19;20007;-58
2023/03/17 09:15:40;;;;;;;0.10;0.10;;;;;;;14.67;66.48;99058.47;7353616;19;20010;-57
2023/03/17 09:18:07;;;;;;;0.00;0.00;;;;;;;14.70;66.34;99060.88;7352712;19;20011;-58
2023/03/17 09:20:33;;;;;;;0.10;0.10;;;;;;;14.75;66.55;99062.28;7351729;19;20038;-59
2023/03/17 09:22:58;;;;;;;0.00;0.00;;;;;;;14.76;66.40;99050.84;7351485;19;20598;-57
2023/03/17 09:25:24;;;;;;;0.10;0.10;;;;;;;14.79;66.46;99052.41;7348937;19;20018;-58
2023/03/17 09:27:50;;;;;;;0.10;0.10;;;;;;;14.87;66.15;99057.16;7208826;19;2834271;-58
2023/03/17 09:30:16;;;;;;;0.10;0.10;;;;;;;14.94;66.44;99064.53;7353563;19;20102;-59
2023/03/17 09:32:44;;;;;;;0.10;0.10;;;;;;;14.98;66.20;99057.28;7353120;19;20883;-58
2023/03/17 09:35:10;;;;;;;0.10;0.10;;;;;;;15.06;66.45;99070.75;7355420;19;20040;-58
2023/03/17 09:37:36;;;;;;;0.00;0.00;;;;;;;15.12;66.15;99056.38;7354885;19;20542;-58
2023/03/17 09:40:06;;;;;;;0.00;0.00;;;;;;;15.18;65.68;99059.41;7353553;19;20042;-58
2023/03/17 09:42:40;;;;;;;0.10;0.10;;;;;;;15.24;65.79;99060.78;7354161;19;20475;-58
2023/03/17 09:45:27;;;;;;;0.10;0.10;;;;;;;15.28;66.21;99051.75;7355370;19;20007;-58
2023/03/17 09:48:08;;;;;;;0.05;0.05;;;;;;;15.28;65.75;99063.09;7349690;19;20010;-58
2023/03/17 09:50:34;;;;;;;0.10;0.10;;;;;;;15.24;65.45;99056.34;7351336;19;20025;-57
2023/03/17 09:53:00;;;;;;;0.10;0.10;;;;;;;15.24;65.53;99066.03;7354984;19;20515;-57
2023/03/17 09:55:29;;;;;;;0.00;0.00;;;;;;;15.25;65.45;99071.19;7350372;19;20044;-57
2023/03/17 09:57:56;;;;;;;0.10;0.10;;;;;;;15.24;65.47;99081.81;7353554;19;20021;-57
2023/03/17 10:00:27;;;;;;;0.10;0.10;;;;;;;15.25;65.33;99078.22;7354073;19;20027;-58
2023/03/17 10:02:54;;;;;;;0.05;0.05;;;;;;;15.20;65.63;99075.91;7346699;19;20014;-58
2023/03/17 10:05:28;;;;;;;0.00;0.00;;;;;;;15.19;66.32;99081.28;7355730;19;20027;-58
2023/03/17 10:08:19;;;;;;;0.10;0.10;;;;;;;15.13;66.23;99072.03;7353547;19;20015;-57
2023/03/17 10:11:21;;;;;;;0.10;0.10;;;;;;;15.07;66.31;99085.59;7354268;19;20010;-58
2023/03/17 10:14:14;;;;;;;0.00;0.00;;;;;;;14.99;66.47;99080.81;7254113;19;2004238;-58
2023/03/17 10:17:12;;;;;;;0.10;0.10;;;;;;;14.93;66.32;99083.03;7256603;19;2004597;-58
2023/03/17 10:19:44;;;;;;;0.10;0.10;;;;;;;14.77;66.85;99078.78;7248857;19;2005181;-58
2023/03/17 10:22:20;;;;;;;0.10;0.10;;;;;;;14.81;66.62;99094.38;7357497;19;20049;-58
2023/03/17 10:24:51;;;;;;;0.05;0.05;;;;;;;14.74;67.14;99094.75;7358206;19;20630;-58
2023/03/17 10:27:17;;;;;;;0.00;0.00;;;;;;;14.69;67.55;99088.94;7357023;19;20035;-57
2023/03/17 10:29:42;;;;;;;0.10;0.10;;;;;;;14.69;67.51;99094.19;7357712;19;20164;-57
2023/03/17 10:32:12;;;;;;;0.10;0.10;;;;;;;14.67;67.68;99098.72;7357117;19;20892;-57
2023/03/17 10:34:38;;;;;;;0.10;0.10;;;;;;;14.62;68.09;99094.72;7351758;19;21551;-58
2023/03/17 10:37:11;;;;;;;0.00;0.00;;;;;;;14.62;68.22;99105.22;7355206;19;20018;-57
2023/03/17 10:39:58;;;;;;;0.10;0.10;;;;;;;14.60;67.38;99107.97;7354647;19;20051;-58
2023/03/17 10:42:29;;;;;;;0.10;0.10;;;;;;;14.56;68.19;99103.84;7349977;19;20574;-59
2023/03/17 10:45:06;;;;;;;0.05;0.05;;;;;;;14.50;68.75;99101.63;7353623;19;20018;-58
2023/03/17 10:47:37;;;;;;;0.10;0.10;;;;;;;14.43;69.31;99105.53;7351783;19;20025;-57
2023/03/17 10:50:31;;;;;;;0.10;0.10;;;;;;;14.41;67.73;99107.41;7352564;19;20021;-58
2023/03/17 10:53:02;;;;;;;0.10;0.10;;;;;;;14.33;68.76;99109.69;7251346;19;2004570;-56
2023/03/17 10:55:31;;;;;;;0.10;0.10;;;;;;;14.24;70.49;99108.47;7350791;19;21074;-56
2023/03/17 10:58:04;;;;;;;0.00;0.00;;;;;;;14.07;70.26;99098.19;7347397;19;20010;-57
2023/03/17 11:00:34;;;;;;;0.10;0.10;;;;;;;14.05;71.41;99115.84;7351487;19;20017;-56
2023/03/17 11:03:10;;;;;;;0.10;0.10;;;;;;;13.97;70.82;99109.25;7349379;19;20353;-57
2023/03/17 11:05:37;;;;;;;0.00;0.00;;;;;;;13.87;71.14;99113.41;7351404;19;20047;-57
2023/03/17 11:08:07;;;;;;;0.10;0.10;;;;;;;13.80;71.66;99116.50;7349680;19;20018;-57
2023/03/17 11:10:36;;;;;;;0.10;0.10;;;;;;;13.66;72.52;99106.84;7351772;19;20066;-57
2023/03/17 11:13:02;;;;;;;0.00;0.00;;;;;;;13.63;72.92;99112.25;7347829;19;20477;-57
2023/03/17 11:15:34;;;;;;;0.10;0.10;;;;;;;13.59;72.35;99101.13;7346466;19;20007;-57
2023/03/17 11:18:03;;;;;;;0.10;0.10;;;;;;;13.51;72.34;99103.38;7340339;19;20014;-57
2023/03/17 11:20:54;;;;;;;0.00;0.00;;;;;;;13.51;71.74;99111.22;7331084;19;20367;-57
2023/03/17 11:23:41;;;;;;;0.10;0.10;;;;;;;13.47;72.31;99107.09;7340365;19;20018;-56
2023/03/17 11:26:31;;;;;;;0.10;0.10;;;;;;;13.44;72.67;99115.16;7335110;19;20795;-57
2023/03/17 11:29:33;;;;;;;0.00;0.00;;;;;;;13.41;72.54;99115.34;7340492;19;20047;-57
2023/03/17 11:32:19;;;;;;;0.10;0.10;;;;;;;13.32;72.29;99098.38;7240633;19;2004192;-61
2023/03/17 11:35:15;;;;;;;0.10;0.10;;;;;;;13.38;71.97;99111.13;7345733;19;20014;-60
2023/03/17 11:38:07;;;;;;;0.10;0.10;;;;;;;13.36;71.58;99112.16;7238513;19;2004561;-61
2023/03/17 11:40:37;;;;;;;0.10;0.10;;;;;;;13.21;73.14;99088.53;7235154;19;2004540;-59